sensor_id;sensor_type;location;lat;lon;timestamp;P1;durP1;ratioP1;P2;durP2;ratioP2
51901;SDS011;37929;53.218;6.548;2023-04-27T00:01:22;10.70;;;4.78;;
51901;SDS011;37929;53.218;6.548;2023-04-27T00:03:48;8.07;;;5.35;;
51901;SDS011;37929;53.218;6.548;2023-04-27T00:06:15;8.63;;;4.75;;
51901;SDS011;37929;53.218;6.548;2023-04-27T00:08:40;11.48;;;5.38;;
51901;SDS011;37929;53.218;6.548;2023-04-27T00:11:07;7.60;;;4.82;;
51901;SDS011;37929;53.218;6.548;2023-04-27T00:13:32;8.43;;;4.95;;
51901;SDS011;37929;53.218;6.548;2023-04-27T00:15:59;6.82;;;4.93;;
51901;SDS011;37929;53.218;6.548;2023-04-27T00:18:27;11.40;;;5.38;;
51901;SDS011;37929;53.218;6.548;2023-04-27T00:20:54;7.68;;;4.32;;
51901;SDS011;37929;53.218;6.548;2023-04-27T00:23:20;9.52;;;4.88;;
51901;SDS011;37929;53.218;6.548;2023-04-27T00:25:46;9.70;;;4.35;;
51901;SDS011;37929;53.218;6.548;2023-04-27T00:28:12;10.93;;;4.55;;
51901;SDS011;37929;53.218;6.548;2023-04-27T00:30:38;6.82;;;3.78;;
51901;SDS011;37929;53.218;6.548;2023-04-27T00:33:03;7.07;;;4.13;;
51901;SDS011;37929;53.218;6.548;2023-04-27T00:35:31;7.38;;;4.10;;
51901;SDS011;37929;53.218;6.548;2023-04-27T00:37:57;8.90;;;4.28;;
51901;SDS011;37929;53.218;6.548;2023-04-27T00:40:23;7.38;;;4.18;;
51901;SDS011;37929;53.218;6.548;2023-04-27T00:42:49;9.40;;;4.40;;
51901;SDS011;37929;53.218;6.548;2023-04-27T00:45:14;8.07;;;4.18;;
51901;SDS011;37929;53.218;6.548;2023-04-27T00:47:41;7.78;;;4.22;;
51901;SDS011;37929;53.218;6.548;2023-04-27T00:50:07;6.72;;;3.95;;
51901;SDS011;37929;53.218;6.548;2023-04-27T00:52:37;8.77;;;4.57;;
51901;SDS011;37929;53.218;6.548;2023-04-27T00:55:04;6.80;;;4.13;;
51901;SDS011;37929;53.218;6.548;2023-04-27T00:57:30;6.70;;;4.32;;
51901;SDS011;37929;53.218;6.548;2023-04-27T01:00:00;7.22;;;4.22;;
51901;SDS011;37929;53.218;6.548;2023-04-27T01:02:28;8.73;;;4.95;;
51901;SDS011;37929;53.218;6.548;2023-04-27T01:04:54;9.02;;;4.80;;
51901;SDS011;37929;53.218;6.548;2023-04-27T01:07:23;7.93;;;4.50;;
51901;SDS011;37929;53.218;6.548;2023-04-27T01:09:50;6.22;;;4.38;;
51901;SDS011;37929;53.218;6.548;2023-04-27T01:12:16;8.07;;;4.65;;
51901;SDS011;37929;53.218;6.548;2023-04-27T01:14:42;8.05;;;4.88;;
51901;SDS011;37929;53.218;6.548;2023-04-27T01:17:07;8.45;;;4.90;;
51901;SDS011;37929;53.218;6.548;2023-04-27T01:19:33;9.63;;;5.13;;
51901;SDS011;37929;53.218;6.548;2023-04-27T01:22:00;10.48;;;5.13;;
51901;SDS011;37929;53.218;6.548;2023-04-27T01:24:25;9.25;;;5.35;;
51901;SDS011;37929;53.218;6.548;2023-04-27T01:26:51;9.35;;;5.20;;
51901;SDS011;37929;53.218;6.548;2023-04-27T01:29:18;12.02;;;5.53;;
51901;SDS011;37929;53.218;6.548;2023-04-27T01:31:45;9.45;;;5.40;;
51901;SDS011;37929;53.218;6.548;2023-04-27T01:34:11;7.38;;;4.40;;
51901;SDS011;37929;53.218;6.548;2023-04-27T01:36:36;9.15;;;5.57;;
51901;SDS011;37929;53.218;6.548;2023-04-27T01:39:02;13.07;;;5.22;;
51901;SDS011;37929;53.218;6.548;2023-04-27T01:41:33;12.32;;;5.53;;
51901;SDS011;37929;53.218;6.548;2023-04-27T01:43:59;11.60;;;6.30;;
51901;SDS011;37929;53.218;6.548;2023-04-27T01:46:25;12.93;;;6.13;;
51901;SDS011;37929;53.218;6.548;2023-04-27T01:48:51;9.75;;;5.40;;
51901;SDS011;37929;53.218;6.548;2023-04-27T01:51:17;7.60;;;5.05;;
51901;SDS011;37929;53.218;6.548;2023-04-27T01:53:42;8.48;;;5.03;;
51901;SDS011;37929;53.218;6.548;2023-04-27T01:56:08;8.50;;;5.30;;
51901;SDS011;37929;53.218;6.548;2023-04-27T01:58:34;8.13;;;5.25;;
51901;SDS011;37929;53.218;6.548;2023-04-27T02:01:00;8.30;;;5.10;;
51901;SDS011;37929;53.218;6.548;2023-04-27T02:03:25;7.15;;;4.50;;
51901;SDS011;37929;53.218;6.548;2023-04-27T02:05:51;8.32;;;5.70;;
51901;SDS011;37929;53.218;6.548;2023-04-27T02:08:17;11.55;;;5.85;;
51901;SDS011;37929;53.218;6.548;2023-04-27T02:10:42;10.25;;;6.03;;
51901;SDS011;37929;53.218;6.548;2023-04-27T02:13:08;10.80;;;6.22;;
51901;SDS011;37929;53.218;6.548;2023-04-27T02:15:34;9.77;;;5.50;;
51901;SDS011;37929;53.218;6.548;2023-04-27T02:18:01;12.57;;;5.82;;
51901;SDS011;37929;53.218;6.548;2023-04-27T02:20:31;9.32;;;5.45;;
51901;SDS011;37929;53.218;6.548;2023-04-27T02:22:57;10.88;;;5.93;;
51901;SDS011;37929;53.218;6.548;2023-04-27T02:25:23;10.90;;;5.97;;
51901;SDS011;37929;53.218;6.548;2023-04-27T02:27:48;10.27;;;5.63;;
51901;SDS011;37929;53.218;6.548;2023-04-27T02:30:14;10.35;;;6.90;;
51901;SDS011;37929;53.218;6.548;2023-04-27T02:32:40;11.00;;;5.68;;
51901;SDS011;37929;53.218;6.548;2023-04-27T02:35:06;9.23;;;5.68;;
51901;SDS011;37929;53.218;6.548;2023-04-27T02:37:33;11.05;;;6.05;;
51901;SDS011;37929;53.218;6.548;2023-04-27T02:39:59;12.05;;;6.40;;
51901;SDS011;37929;53.218;6.548;2023-04-27T02:42:25;14.20;;;6.40;;
51901;SDS011;37929;53.218;6.548;2023-04-27T02:44:50;11.95;;;6.82;;
51901;SDS011;37929;53.218;6.548;2023-04-27T02:47:16;11.05;;;5.97;;
51901;SDS011;37929;53.218;6.548;2023-04-27T02:49:43;8.48;;;5.00;;
51901;SDS011;37929;53.218;6.548;2023-04-27T02:52:08;8.93;;;4.90;;
51901;SDS011;37929;53.218;6.548;2023-04-27T02:54:37;10.32;;;5.47;;
51901;SDS011;37929;53.218;6.548;2023-04-27T02:57:03;10.60;;;5.00;;
51901;SDS011;37929;53.218;6.548;2023-04-27T02:59:29;11.70;;;5.00;;
51901;SDS011;37929;53.218;6.548;2023-04-27T03:01:55;9.73;;;4.85;;
51901;SDS011;37929;53.218;6.548;2023-04-27T03:04:20;8.52;;;4.85;;
51901;SDS011;37929;53.218;6.548;2023-04-27T03:06:46;7.95;;;5.50;;
51901;SDS011;37929;53.218;6.548;2023-04-27T03:09:12;8.05;;;4.90;;
51901;SDS011;37929;53.218;6.548;2023-04-27T03:11:38;9.90;;;5.82;;
51901;SDS011;37929;53.218;6.548;2023-04-27T03:14:04;8.00;;;4.97;;
51901;SDS011;37929;53.218;6.548;2023-04-27T03:16:31;9.10;;;5.38;;
51901;SDS011;37929;53.218;6.548;2023-04-27T03:18:57;8.00;;;5.32;;
51901;SDS011;37929;53.218;6.548;2023-04-27T03:21:22;9.45;;;5.10;;
51901;SDS011;37929;53.218;6.548;2023-04-27T03:23:48;7.97;;;5.13;;
51901;SDS011;37929;53.218;6.548;2023-04-27T03:26:14;8.57;;;5.40;;
51901;SDS011;37929;53.218;6.548;2023-04-27T03:28:40;8.43;;;4.90;;
51901;SDS011;37929;53.218;6.548;2023-04-27T03:31:06;8.13;;;5.40;;
51901;SDS011;37929;53.218;6.548;2023-04-27T03:33:33;8.77;;;5.63;;
51901;SDS011;37929;53.218;6.548;2023-04-27T03:36:00;9.35;;;5.55;;
51901;SDS011;37929;53.218;6.548;2023-04-27T03:38:26;8.15;;;5.47;;
51901;SDS011;37929;53.218;6.548;2023-04-27T03:40:53;11.02;;;5.28;;
51901;SDS011;37929;53.218;6.548;2023-04-27T03:43:19;7.97;;;5.30;;
51901;SDS011;37929;53.218;6.548;2023-04-27T03:45:45;9.38;;;5.43;;
51901;SDS011;37929;53.218;6.548;2023-04-27T03:48:12;10.38;;;5.63;;
51901;SDS011;37929;53.218;6.548;2023-04-27T03:50:38;11.00;;;5.35;;
51901;SDS011;37929;53.218;6.548;2023-04-27T03:53:04;9.88;;;5.93;;
51901;SDS011;37929;53.218;6.548;2023-04-27T03:55:30;7.97;;;5.15;;
51901;SDS011;37929;53.218;6.548;2023-04-27T03:57:56;9.48;;;5.32;;
51901;SDS011;37929;53.218;6.548;2023-04-27T04:00:22;8.55;;;5.88;;
51901;SDS011;37929;53.218;6.548;2023-04-27T04:02:48;10.73;;;5.80;;
51901;SDS011;37929;53.218;6.548;2023-04-27T04:05:14;11.38;;;6.35;;
51901;SDS011;37929;53.218;6.548;2023-04-27T04:07:39;8.48;;;4.82;;
51901;SDS011;37929;53.218;6.548;2023-04-27T04:10:06;9.32;;;5.72;;
51901;SDS011;37929;53.218;6.548;2023-04-27T04:12:32;12.35;;;5.90;;
51901;SDS011;37929;53.218;6.548;2023-04-27T04:14:58;11.13;;;5.95;;
51901;SDS011;37929;53.218;6.548;2023-04-27T04:17:24;10.63;;;5.53;;
51901;SDS011;37929;53.218;6.548;2023-04-27T04:19:49;8.27;;;4.88;;
51901;SDS011;37929;53.218;6.548;2023-04-27T04:22:15;11.45;;;5.97;;
51901;SDS011;37929;53.218;6.548;2023-04-27T04:24:41;11.82;;;5.75;;
51901;SDS011;37929;53.218;6.548;2023-04-27T04:27:07;9.35;;;5.78;;
51901;SDS011;37929;53.218;6.548;2023-04-27T04:29:33;10.13;;;5.20;;
51901;SDS011;37929;53.218;6.548;2023-04-27T04:31:59;11.07;;;5.72;;
51901;SDS011;37929;53.218;6.548;2023-04-27T04:34:25;10.32;;;6.00;;
51901;SDS011;37929;53.218;6.548;2023-04-27T04:36:52;10.50;;;5.68;;
51901;SDS011;37929;53.218;6.548;2023-04-27T04:39:20;10.85;;;5.40;;
51901;SDS011;37929;53.218;6.548;2023-04-27T04:41:46;12.50;;;5.88;;
51901;SDS011;37929;53.218;6.548;2023-04-27T04:44:15;13.63;;;6.25;;
51901;SDS011;37929;53.218;6.548;2023-04-27T04:46:41;14.63;;;6.65;;
51901;SDS011;37929;53.218;6.548;2023-04-27T04:49:07;8.68;;;5.28;;
51901;SDS011;37929;53.218;6.548;2023-04-27T04:51:33;13.15;;;6.20;;
51901;SDS011;37929;53.218;6.548;2023-04-27T04:53:59;8.50;;;5.13;;
51901;SDS011;37929;53.218;6.548;2023-04-27T04:56:25;10.35;;;6.30;;
51901;SDS011;37929;53.218;6.548;2023-04-27T04:58:51;10.40;;;6.07;;
51901;SDS011;37929;53.218;6.548;2023-04-27T05:01:16;11.63;;;6.38;;
51901;SDS011;37929;53.218;6.548;2023-04-27T05:03:42;12.88;;;5.93;;
51901;SDS011;37929;53.218;6.548;2023-04-27T05:06:08;11.55;;;5.97;;
51901;SDS011;37929;53.218;6.548;2023-04-27T05:08:34;11.38;;;5.65;;
51901;SDS011;37929;53.218;6.548;2023-04-27T05:11:00;11.35;;;6.03;;
51901;SDS011;37929;53.218;6.548;2023-04-27T05:13:25;8.77;;;5.72;;
51901;SDS011;37929;53.218;6.548;2023-04-27T05:15:52;14.93;;;5.90;;
51901;SDS011;37929;53.218;6.548;2023-04-27T05:18:18;10.02;;;6.10;;
51901;SDS011;37929;53.218;6.548;2023-04-27T05:20:43;10.02;;;5.55;;
51901;SDS011;37929;53.218;6.548;2023-04-27T05:23:09;8.32;;;5.47;;
51901;SDS011;37929;53.218;6.548;2023-04-27T05:25:35;10.90;;;6.05;;
51901;SDS011;37929;53.218;6.548;2023-04-27T05:28:07;8.25;;;5.32;;
51901;SDS011;37929;53.218;6.548;2023-04-27T05:30:34;10.52;;;6.20;;
51901;SDS011;37929;53.218;6.548;2023-04-27T05:33:01;9.93;;;5.63;;
51901;SDS011;37929;53.218;6.548;2023-04-27T05:35:28;8.40;;;5.47;;
51901;SDS011;37929;53.218;6.548;2023-04-27T05:37:55;9.88;;;5.15;;
51901;SDS011;37929;53.218;6.548;2023-04-27T05:40:22;9.00;;;5.22;;
51901;SDS011;37929;53.218;6.548;2023-04-27T05:42:48;7.53;;;4.45;;
51901;SDS011;37929;53.218;6.548;2023-04-27T05:45:14;7.38;;;4.60;;
51901;SDS011;37929;53.218;6.548;2023-04-27T05:47:40;8.05;;;4.63;;
51901;SDS011;37929;53.218;6.548;2023-04-27T05:50:08;6.45;;;4.28;;
51901;SDS011;37929;53.218;6.548;2023-04-27T05:52:34;6.80;;;4.72;;
51901;SDS011;37929;53.218;6.548;2023-04-27T05:55:00;7.68;;;5.07;;
51901;SDS011;37929;53.218;6.548;2023-04-27T05:57:26;9.90;;;4.90;;
51901;SDS011;37929;53.218;6.548;2023-04-27T05:59:52;8.07;;;3.88;;
51901;SDS011;37929;53.218;6.548;2023-04-27T06:02:18;8.40;;;3.70;;
51901;SDS011;37929;53.218;6.548;2023-04-27T06:04:44;6.47;;;4.13;;
51901;SDS011;37929;53.218;6.548;2023-04-27T06:07:14;6.90;;;4.07;;
51901;SDS011;37929;53.218;6.548;2023-04-27T06:09:40;11.60;;;4.15;;
51901;SDS011;37929;53.218;6.548;2023-04-27T06:12:06;7.00;;;3.90;;
51901;SDS011;37929;53.218;6.548;2023-04-27T06:14:33;9.45;;;4.55;;
51901;SDS011;37929;53.218;6.548;2023-04-27T06:17:00;7.10;;;4.22;;
51901;SDS011;37929;53.218;6.548;2023-04-27T06:19:27;10.70;;;4.18;;
51901;SDS011;37929;53.218;6.548;2023-04-27T06:21:53;8.23;;;4.28;;
51901;SDS011;37929;53.218;6.548;2023-04-27T06:24:19;7.68;;;3.90;;
51901;SDS011;37929;53.218;6.548;2023-04-27T06:26:45;6.80;;;3.55;;
51901;SDS011;37929;53.218;6.548;2023-04-27T06:29:11;6.18;;;3.90;;
51901;SDS011;37929;53.218;6.548;2023-04-27T06:31:37;7.95;;;3.75;;
51901;SDS011;37929;53.218;6.548;2023-04-27T06:34:03;6.88;;;3.95;;
51901;SDS011;37929;53.218;6.548;2023-04-27T06:36:29;7.75;;;3.90;;
51901;SDS011;37929;53.218;6.548;2023-04-27T06:38:55;4.38;;;3.08;;
51901;SDS011;37929;53.218;6.548;2023-04-27T06:41:22;5.78;;;3.50;;
51901;SDS011;37929;53.218;6.548;2023-04-27T06:43:50;3.80;;;3.08;;
51901;SDS011;37929;53.218;6.548;2023-04-27T06:46:16;4.28;;;2.78;;
51901;SDS011;37929;53.218;6.548;2023-04-27T06:48:42;4.75;;;2.75;;
51901;SDS011;37929;53.218;6.548;2023-04-27T06:51:07;3.33;;;2.55;;
51901;SDS011;37929;53.218;6.548;2023-04-27T06:53:33;4.60;;;3.20;;
51901;SDS011;37929;53.218;6.548;2023-04-27T06:55:59;4.68;;;3.10;;
51901;SDS011;37929;53.218;6.548;2023-04-27T06:58:25;6.50;;;3.08;;
51901;SDS011;37929;53.218;6.548;2023-04-27T07:00:51;2.95;;;2.38;;
51901;SDS011;37929;53.218;6.548;2023-04-27T07:03:18;5.13;;;2.78;;
51901;SDS011;37929;53.218;6.548;2023-04-27T07:05:44;3.90;;;2.50;;
51901;SDS011;37929;53.218;6.548;2023-04-27T07:08:10;6.40;;;3.03;;
51901;SDS011;37929;53.218;6.548;2023-04-27T07:10:37;9.32;;;3.50;;
51901;SDS011;37929;53.218;6.548;2023-04-27T07:13:02;4.13;;;2.40;;
51901;SDS011;37929;53.218;6.548;2023-04-27T07:15:32;3.15;;;2.30;;
51901;SDS011;37929;53.218;6.548;2023-04-27T07:17:57;5.10;;;2.28;;
51901;SDS011;37929;53.218;6.548;2023-04-27T07:20:23;6.20;;;2.58;;
51901;SDS011;37929;53.218;6.548;2023-04-27T07:22:49;4.47;;;2.30;;
51901;SDS011;37929;53.218;6.548;2023-04-27T07:25:15;6.40;;;2.60;;
51901;SDS011;37929;53.218;6.548;2023-04-27T07:27:41;3.22;;;2.53;;
51901;SDS011;37929;53.218;6.548;2023-04-27T07:30:07;5.53;;;2.33;;
51901;SDS011;37929;53.218;6.548;2023-04-27T07:32:34;4.85;;;2.15;;
51901;SDS011;37929;53.218;6.548;2023-04-27T07:35:01;3.40;;;2.45;;
51901;SDS011;37929;53.218;6.548;2023-04-27T07:37:27;4.68;;;2.30;;
51901;SDS011;37929;53.218;6.548;2023-04-27T07:39:53;2.97;;;2.00;;
51901;SDS011;37929;53.218;6.548;2023-04-27T07:42:19;4.32;;;2.38;;
51901;SDS011;37929;53.218;6.548;2023-04-27T07:44:49;4.47;;;2.40;;
51901;SDS011;37929;53.218;6.548;2023-04-27T07:47:16;4.38;;;2.25;;
51901;SDS011;37929;53.218;6.548;2023-04-27T07:49:42;4.40;;;2.67;;
51901;SDS011;37929;53.218;6.548;2023-04-27T07:52:12;5.45;;;2.03;;
51901;SDS011;37929;53.218;6.548;2023-04-27T07:54:38;4.85;;;2.22;;
51901;SDS011;37929;53.218;6.548;2023-04-27T07:57:08;3.08;;;2.05;;
51901;SDS011;37929;53.218;6.548;2023-04-27T07:59:36;4.05;;;2.10;;
51901;SDS011;37929;53.218;6.548;2023-04-27T08:02:02;3.85;;;2.03;;
51901;SDS011;37929;53.218;6.548;2023-04-27T08:04:28;2.58;;;1.77;;
51901;SDS011;37929;53.218;6.548;2023-04-27T08:06:56;2.78;;;2.00;;
51901;SDS011;37929;53.218;6.548;2023-04-27T08:09:22;2.85;;;1.85;;
51901;SDS011;37929;53.218;6.548;2023-04-27T08:11:48;3.22;;;2.00;;
51901;SDS011;37929;53.218;6.548;2023-04-27T08:14:13;3.35;;;2.45;;
51901;SDS011;37929;53.218;6.548;2023-04-27T08:16:43;4.00;;;2.38;;
51901;SDS011;37929;53.218;6.548;2023-04-27T08:19:09;4.57;;;2.45;;
51901;SDS011;37929;53.218;6.548;2023-04-27T08:21:35;2.50;;;1.90;;
51901;SDS011;37929;53.218;6.548;2023-04-27T08:24:02;2.75;;;1.80;;
51901;SDS011;37929;53.218;6.548;2023-04-27T08:26:29;4.25;;;2.10;;
51901;SDS011;37929;53.218;6.548;2023-04-27T08:28:55;2.80;;;1.98;;
51901;SDS011;37929;53.218;6.548;2023-04-27T08:31:21;4.93;;;2.50;;
51901;SDS011;37929;53.218;6.548;2023-04-27T08:33:48;3.50;;;2.20;;
51901;SDS011;37929;53.218;6.548;2023-04-27T08:36:14;3.22;;;1.90;;
51901;SDS011;37929;53.218;6.548;2023-04-27T08:38:40;3.25;;;2.10;;
51901;SDS011;37929;53.218;6.548;2023-04-27T08:41:05;3.10;;;2.08;;
51901;SDS011;37929;53.218;6.548;2023-04-27T08:43:32;3.35;;;2.17;;
51901;SDS011;37929;53.218;6.548;2023-04-27T08:45:59;3.58;;;2.10;;
51901;SDS011;37929;53.218;6.548;2023-04-27T08:48:25;5.43;;;2.38;;
51901;SDS011;37929;53.218;6.548;2023-04-27T08:50:51;5.32;;;2.10;;
51901;SDS011;37929;53.218;6.548;2023-04-27T08:53:21;2.65;;;2.03;;
51901;SDS011;37929;53.218;6.548;2023-04-27T08:55:50;4.45;;;2.13;;
51901;SDS011;37929;53.218;6.548;2023-04-27T08:58:16;5.35;;;2.00;;
51901;SDS011;37929;53.218;6.548;2023-04-27T09:00:42;3.88;;;2.08;;
51901;SDS011;37929;53.218;6.548;2023-04-27T09:03:22;4.47;;;2.47;;
51901;SDS011;37929;53.218;6.548;2023-04-27T09:05:49;4.35;;;2.25;;
51901;SDS011;37929;53.218;6.548;2023-04-27T09:08:15;6.18;;;2.20;;
51901;SDS011;37929;53.218;6.548;2023-04-27T09:10:50;3.42;;;2.40;;
51901;SDS011;37929;53.218;6.548;2023-04-27T09:13:17;4.90;;;2.00;;
51901;SDS011;37929;53.218;6.548;2023-04-27T09:15:44;3.25;;;2.40;;
51901;SDS011;37929;53.218;6.548;2023-04-27T09:18:15;4.80;;;2.20;;
51901;SDS011;37929;53.218;6.548;2023-04-27T09:20:51;4.95;;;2.40;;
51901;SDS011;37929;53.218;6.548;2023-04-27T09:23:24;4.75;;;2.30;;
51901;SDS011;37929;53.218;6.548;2023-04-27T09:25:57;6.10;;;2.90;;
51901;SDS011;37929;53.218;6.548;2023-04-27T09:28:28;4.00;;;2.45;;
51901;SDS011;37929;53.218;6.548;2023-04-27T09:30:56;7.65;;;2.95;;
51901;SDS011;37929;53.218;6.548;2023-04-27T09:33:27;7.97;;;3.10;;
51901;SDS011;37929;53.218;6.548;2023-04-27T09:35:54;4.10;;;2.42;;
51901;SDS011;37929;53.218;6.548;2023-04-27T09:38:21;5.20;;;2.67;;
51901;SDS011;37929;53.218;6.548;2023-04-27T09:40:48;4.13;;;2.78;;
51901;SDS011;37929;53.218;6.548;2023-04-27T09:43:15;7.40;;;3.85;;
51901;SDS011;37929;53.218;6.548;2023-04-27T09:45:41;4.97;;;3.55;;
51901;SDS011;37929;53.218;6.548;2023-04-27T09:48:07;6.20;;;2.90;;
51901;SDS011;37929;53.218;6.548;2023-04-27T09:50:35;5.38;;;3.15;;
51901;SDS011;37929;53.218;6.548;2023-04-27T09:53:06;6.10;;;2.80;;
51901;SDS011;37929;53.218;6.548;2023-04-27T09:55:38;5.03;;;2.65;;
51901;SDS011;37929;53.218;6.548;2023-04-27T10:09:06;4.53;;;2.90;;
51901;SDS011;37929;53.218;6.548;2023-04-27T10:11:37;4.90;;;3.42;;
51901;SDS011;37929;53.218;6.548;2023-04-27T10:14:08;6.22;;;3.30;;
51901;SDS011;37929;53.218;6.548;2023-04-27T10:19:10;4.22;;;3.35;;
51901;SDS011;37929;53.218;6.548;2023-04-27T10:21:37;6.15;;;3.17;;
51901;SDS011;37929;53.218;6.548;2023-04-27T10:24:06;5.45;;;3.78;;
51901;SDS011;37929;53.218;6.548;2023-04-27T10:26:36;5.97;;;3.50;;
51901;SDS011;37929;53.218;6.548;2023-04-27T10:29:11;6.63;;;4.15;;
51901;SDS011;37929;53.218;6.548;2023-04-27T10:31:43;4.45;;;3.25;;
51901;SDS011;37929;53.218;6.548;2023-04-27T10:34:16;4.43;;;2.97;;
51901;SDS011;37929;53.218;6.548;2023-04-27T10:36:42;4.38;;;3.20;;
51901;SDS011;37929;53.218;6.548;2023-04-27T10:39:19;5.15;;;3.65;;
51901;SDS011;37929;53.218;6.548;2023-04-27T10:44:26;5.95;;;3.55;;
51901;SDS011;37929;53.218;6.548;2023-04-27T10:46:54;6.30;;;3.95;;
51901;SDS011;37929;53.218;6.548;2023-04-27T10:49:21;5.63;;;3.42;;
51901;SDS011;37929;53.218;6.548;2023-04-27T10:51:51;5.97;;;3.45;;
51901;SDS011;37929;53.218;6.548;2023-04-27T10:54:16;6.03;;;3.75;;
51901;SDS011;37929;53.218;6.548;2023-04-27T10:56:43;6.60;;;3.95;;
51901;SDS011;37929;53.218;6.548;2023-04-27T10:59:09;5.65;;;3.90;;
51901;SDS011;37929;53.218;6.548;2023-04-27T11:01:35;6.05;;;3.45;;
51901;SDS011;37929;53.218;6.548;2023-04-27T11:04:01;8.05;;;4.30;;
51901;SDS011;37929;53.218;6.548;2023-04-27T11:06:28;6.60;;;3.80;;
51901;SDS011;37929;53.218;6.548;2023-04-27T11:08:55;5.38;;;3.85;;
51901;SDS011;37929;53.218;6.548;2023-04-27T11:11:21;5.70;;;3.72;;
51901;SDS011;37929;53.218;6.548;2023-04-27T11:13:47;6.40;;;3.30;;
51901;SDS011;37929;53.218;6.548;2023-04-27T11:16:14;5.88;;;3.92;;
51901;SDS011;37929;53.218;6.548;2023-04-27T11:18:40;6.47;;;3.75;;
51901;SDS011;37929;53.218;6.548;2023-04-27T11:21:13;5.40;;;3.88;;
51901;SDS011;37929;53.218;6.548;2023-04-27T11:23:43;5.13;;;3.70;;
51901;SDS011;37929;53.218;6.548;2023-04-27T11:26:20;6.45;;;3.90;;
51901;SDS011;37929;53.218;6.548;2023-04-27T11:28:56;4.95;;;3.28;;
51901;SDS011;37929;53.218;6.548;2023-04-27T11:31:24;8.82;;;4.00;;
51901;SDS011;37929;53.218;6.548;2023-04-27T11:34:02;7.07;;;4.10;;
51901;SDS011;37929;53.218;6.548;2023-04-27T11:36:27;5.03;;;3.75;;
51901;SDS011;37929;53.218;6.548;2023-04-27T11:38:57;5.15;;;3.47;;
51901;SDS011;37929;53.218;6.548;2023-04-27T11:41:31;4.45;;;3.50;;
51901;SDS011;37929;53.218;6.548;2023-04-27T11:44:05;6.30;;;3.92;;
51901;SDS011;37929;53.218;6.548;2023-04-27T11:46:33;6.57;;;4.03;;
51901;SDS011;37929;53.218;6.548;2023-04-27T11:49:02;8.23;;;3.90;;
51901;SDS011;37929;53.218;6.548;2023-04-27T11:51:29;8.02;;;4.28;;
51901;SDS011;37929;53.218;6.548;2023-04-27T11:54:00;8.43;;;4.13;;
51901;SDS011;37929;53.218;6.548;2023-04-27T11:56:37;4.85;;;3.80;;
51901;SDS011;37929;53.218;6.548;2023-04-27T11:59:04;6.63;;;4.30;;
51901;SDS011;37929;53.218;6.548;2023-04-27T12:01:34;8.20;;;4.70;;
51901;SDS011;37929;53.218;6.548;2023-04-27T12:04:00;5.53;;;4.00;;
51901;SDS011;37929;53.218;6.548;2023-04-27T12:06:27;7.32;;;3.40;;
51901;SDS011;37929;53.218;6.548;2023-04-27T12:08:56;7.10;;;3.72;;
51901;SDS011;37929;53.218;6.548;2023-04-27T12:11:23;6.20;;;3.60;;
51901;SDS011;37929;53.218;6.548;2023-04-27T12:13:51;5.20;;;3.28;;
51901;SDS011;37929;53.218;6.548;2023-04-27T12:16:18;7.60;;;3.90;;
51901;SDS011;37929;53.218;6.548;2023-04-27T12:18:46;5.13;;;3.20;;
51901;SDS011;37929;53.218;6.548;2023-04-27T12:21:15;4.13;;;3.13;;
51901;SDS011;37929;53.218;6.548;2023-04-27T12:23:41;9.15;;;3.65;;
51901;SDS011;37929;53.218;6.548;2023-04-27T12:26:07;5.10;;;3.08;;
51901;SDS011;37929;53.218;6.548;2023-04-27T12:28:32;6.97;;;3.20;;
51901;SDS011;37929;53.218;6.548;2023-04-27T12:31:01;7.78;;;3.85;;
51901;SDS011;37929;53.218;6.548;2023-04-27T12:33:28;4.03;;;2.90;;
51901;SDS011;37929;53.218;6.548;2023-04-27T12:35:54;6.82;;;3.30;;
51901;SDS011;37929;53.218;6.548;2023-04-27T12:38:20;4.50;;;3.42;;
51901;SDS011;37929;53.218;6.548;2023-04-27T12:40:46;5.07;;;3.03;;
51901;SDS011;37929;53.218;6.548;2023-04-27T12:43:12;5.05;;;2.97;;
51901;SDS011;37929;53.218;6.548;2023-04-27T12:45:39;3.90;;;2.88;;
51901;SDS011;37929;53.218;6.548;2023-04-27T12:48:04;5.65;;;3.20;;
51901;SDS011;37929;53.218;6.548;2023-04-27T12:50:31;6.00;;;3.47;;
51901;SDS011;37929;53.218;6.548;2023-04-27T12:52:56;3.90;;;2.85;;
51901;SDS011;37929;53.218;6.548;2023-04-27T12:55:22;4.57;;;3.10;;
51901;SDS011;37929;53.218;6.548;2023-04-27T12:57:48;4.68;;;2.90;;
51901;SDS011;37929;53.218;6.548;2023-04-27T13:00:14;5.20;;;3.28;;
51901;SDS011;37929;53.218;6.548;2023-04-27T13:02:41;4.13;;;3.10;;
51901;SDS011;37929;53.218;6.548;2023-04-27T13:05:07;7.15;;;3.63;;
51901;SDS011;37929;53.218;6.548;2023-04-27T13:07:33;6.82;;;3.60;;
51901;SDS011;37929;53.218;6.548;2023-04-27T13:10:00;6.15;;;3.58;;
51901;SDS011;37929;53.218;6.548;2023-04-27T13:12:26;5.65;;;3.30;;
51901;SDS011;37929;53.218;6.548;2023-04-27T13:14:52;7.80;;;3.20;;
51901;SDS011;37929;53.218;6.548;2023-04-27T13:17:17;5.65;;;3.45;;
51901;SDS011;37929;53.218;6.548;2023-04-27T13:19:43;5.10;;;3.03;;
51901;SDS011;37929;53.218;6.548;2023-04-27T13:22:09;6.03;;;3.80;;
51901;SDS011;37929;53.218;6.548;2023-04-27T13:24:35;6.10;;;3.40;;
51901;SDS011;37929;53.218;6.548;2023-04-27T13:27:01;5.25;;;2.83;;
51901;SDS011;37929;53.218;6.548;2023-04-27T13:29:27;4.75;;;3.45;;
51901;SDS011;37929;53.218;6.548;2023-04-27T13:31:53;6.85;;;3.78;;
51901;SDS011;37929;53.218;6.548;2023-04-27T13:34:19;4.65;;;3.20;;
51901;SDS011;37929;53.218;6.548;2023-04-27T13:36:45;6.75;;;4.60;;
51901;SDS011;37929;53.218;6.548;2023-04-27T13:39:11;6.93;;;3.65;;
51901;SDS011;37929;53.218;6.548;2023-04-27T13:41:37;5.25;;;3.65;;
51901;SDS011;37929;53.218;6.548;2023-04-27T13:44:03;4.28;;;3.60;;
51901;SDS011;37929;53.218;6.548;2023-04-27T13:46:29;4.57;;;3.13;;
51901;SDS011;37929;53.218;6.548;2023-04-27T13:48:55;5.65;;;3.60;;
51901;SDS011;37929;53.218;6.548;2023-04-27T13:51:21;5.53;;;3.50;;
51901;SDS011;37929;53.218;6.548;2023-04-27T13:53:47;6.93;;;3.53;;
51901;SDS011;37929;53.218;6.548;2023-04-27T13:56:13;7.03;;;4.53;;
51901;SDS011;37929;53.218;6.548;2023-04-27T13:58:39;5.30;;;3.10;;
51901;SDS011;37929;53.218;6.548;2023-04-27T14:01:05;5.65;;;3.45;;
51901;SDS011;37929;53.218;6.548;2023-04-27T14:03:33;6.07;;;3.28;;
51901;SDS011;37929;53.218;6.548;2023-04-27T14:05:59;4.97;;;3.47;;
51901;SDS011;37929;53.218;6.548;2023-04-27T14:08:25;6.80;;;3.60;;
51901;SDS011;37929;53.218;6.548;2023-04-27T14:10:51;6.47;;;4.03;;
51901;SDS011;37929;53.218;6.548;2023-04-27T14:13:17;5.97;;;3.83;;
51901;SDS011;37929;53.218;6.548;2023-04-27T14:15:43;5.93;;;3.65;;
51901;SDS011;37929;53.218;6.548;2023-04-27T14:18:13;4.95;;;3.58;;
51901;SDS011;37929;53.218;6.548;2023-04-27T14:20:38;6.88;;;3.58;;
51901;SDS011;37929;53.218;6.548;2023-04-27T14:23:06;4.60;;;3.45;;
51901;SDS011;37929;53.218;6.548;2023-04-27T14:25:32;7.50;;;3.75;;
51901;SDS011;37929;53.218;6.548;2023-04-27T14:28:02;6.63;;;3.67;;
51901;SDS011;37929;53.218;6.548;2023-04-27T14:30:32;5.38;;;3.65;;
51901;SDS011;37929;53.218;6.548;2023-04-27T14:32:59;6.25;;;3.45;;
51901;SDS011;37929;53.218;6.548;2023-04-27T14:35:26;5.05;;;3.72;;
51901;SDS011;37929;53.218;6.548;2023-04-27T14:37:52;5.72;;;3.58;;
51901;SDS011;37929;53.218;6.548;2023-04-27T14:40:17;6.57;;;3.58;;
51901;SDS011;37929;53.218;6.548;2023-04-27T14:42:43;8.18;;;3.97;;
51901;SDS011;37929;53.218;6.548;2023-04-27T14:45:09;6.25;;;3.72;;
51901;SDS011;37929;53.218;6.548;2023-04-27T14:47:36;5.53;;;3.60;;
51901;SDS011;37929;53.218;6.548;2023-04-27T14:50:02;4.40;;;3.53;;
51901;SDS011;37929;53.218;6.548;2023-04-27T14:52:28;7.25;;;3.58;;
51901;SDS011;37929;53.218;6.548;2023-04-27T14:54:54;8.25;;;3.63;;
51901;SDS011;37929;53.218;6.548;2023-04-27T14:57:19;4.00;;;3.28;;
51901;SDS011;37929;53.218;6.548;2023-04-27T14:59:46;5.07;;;3.17;;